createdAt,value
2022-12-04T00:00:34.618Z,100.00
2022-12-04T00:03:02.201Z,100.00
2022-12-04T00:05:30.860Z,99.70
2022-12-04T00:07:58.692Z,99.24
2022-12-04T00:10:26.464Z,99.08
2022-12-04T00:12:54.076Z,97.77
2022-12-04T00:15:26.265Z,96.88
2022-12-04T00:17:54.237Z,97.63
2022-12-04T00:20:23.161Z,98.35
2022-12-04T00:22:50.746Z,98.33
2022-12-04T00:25:18.324Z,96.93
2022-12-04T00:27:45.723Z,96.71
2022-12-04T00:30:13.288Z,95.73
2022-12-04T00:32:40.901Z,95.55
2022-12-04T00:35:09.931Z,95.92
2022-12-04T00:37:37.397Z,95.90
2022-12-04T00:40:05.136Z,93.04
2022-12-04T00:42:32.647Z,92.22
2022-12-04T00:45:00.132Z,93.67
2022-12-04T00:47:27.472Z,93.72
2022-12-04T00:49:55.107Z,92.74
2022-12-04T00:52:22.780Z,91.21
2022-12-04T00:54:50.965Z,91.13
2022-12-04T00:57:18.294Z,91.33
2022-12-04T00:59:45.597Z,89.78
2022-12-04T01:02:13.009Z,88.58
2022-12-04T01:04:40.309Z,89.47
2022-12-04T01:07:07.950Z,88.31
2022-12-04T01:09:35.559Z,88.72
2022-12-04T01:12:02.837Z,86.82
2022-12-04T01:14:30.332Z,85.21
2022-12-04T01:16:57.776Z,84.73
2022-12-04T01:19:25.298Z,83.94
2022-12-04T01:21:53.246Z,82.86
2022-12-04T01:24:20.742Z,82.58
2022-12-04T01:26:48.547Z,82.90
2022-12-04T01:29:16.068Z,83.42
2022-12-04T01:31:43.483Z,81.41
2022-12-04T01:34:10.801Z,81.00
2022-12-04T01:36:38.202Z,81.26
2022-12-04T01:39:05.611Z,81.35
2022-12-04T01:41:33.009Z,81.45
2022-12-04T01:44:15.697Z,81.41
2022-12-04T01:46:44.192Z,80.17
2022-12-04T01:49:17.582Z,79.87
2022-12-04T01:51:46.338Z,79.31
2022-12-04T01:54:28.545Z,79.38
2022-12-04T01:57:22.713Z,79.19
2022-12-04T01:59:50.876Z,80.26
2022-12-04T02:02:19.836Z,79.66
2022-12-04T02:04:47.719Z,78.58
2022-12-04T02:07:15.124Z,77.80
2022-12-04T02:09:43.381Z,78.20
2022-12-04T02:12:32.983Z,78.52
2022-12-04T02:15:16.217Z,77.56
2022-12-04T02:17:59.039Z,77.15
2022-12-04T02:20:32.598Z,77.65
2022-12-04T02:23:18.726Z,77.27
2022-12-04T02:26:04.951Z,76.71
2022-12-04T02:28:32.759Z,76.69
2022-12-04T02:31:00.347Z,76.91
2022-12-04T02:33:48.031Z,75.87
2022-12-04T02:36:26.161Z,75.46
2022-12-04T02:39:19.883Z,75.50
2022-12-04T02:41:55.075Z,74.53
2022-12-04T02:44:34.317Z,74.07
2022-12-04T02:47:02.775Z,73.58
2022-12-04T02:49:44.709Z,73.43
2022-12-04T02:52:13.385Z,73.53
2022-12-04T02:54:42.298Z,72.97
2022-12-04T02:57:11.369Z,74.52
2022-12-04T02:59:40.851Z,74.73
2022-12-04T03:02:12.983Z,74.72
2022-12-04T03:04:40.395Z,74.84
2022-12-04T03:07:10.189Z,74.41
2022-12-04T03:09:38.755Z,74.45
2022-12-04T03:12:07.985Z,74.70
2022-12-04T03:14:35.710Z,74.67
2022-12-04T03:17:05.219Z,74.24
2022-12-04T03:19:44.133Z,73.94
2022-12-04T03:22:13.117Z,74.09
2022-12-04T03:25:06.922Z,74.59
2022-12-04T03:27:48.752Z,75.01
2022-12-04T03:30:16.786Z,74.36
2022-12-04T03:32:44.287Z,74.94
2022-12-04T03:35:14.042Z,75.07
2022-12-04T03:37:43.576Z,74.62
2022-12-04T03:40:20.189Z,75.23
2022-12-04T03:42:48.783Z,75.36
2022-12-04T03:45:23.705Z,75.18
2022-12-04T03:47:51.197Z,74.55
2022-12-04T03:50:21.062Z,75.59
2022-12-04T03:52:48.574Z,75.47
2022-12-04T03:55:19.177Z,75.66
2022-12-04T03:57:46.584Z,75.22
2022-12-04T04:00:15.222Z,74.34
2022-12-04T04:02:50.395Z,74.42
2022-12-04T04:05:17.921Z,74.84
2022-12-04T04:07:51.936Z,75.61
2022-12-04T04:10:20.375Z,75.45
2022-12-04T04:13:09.851Z,75.95
2022-12-04T04:16:01.783Z,76.55
2022-12-04T04:18:48.043Z,76.77
2022-12-04T04:21:34.170Z,75.74
2022-12-04T04:24:16.736Z,75.74
2022-12-04T04:26:45.248Z,76.46
2022-12-04T04:29:12.853Z,75.95
2022-12-04T04:31:43.853Z,75.63
2022-12-04T04:34:14.343Z,75.56
2022-12-04T04:36:44.620Z,76.01
2022-12-04T04:39:18.270Z,76.10
2022-12-04T04:41:59.765Z,76.86
2022-12-04T04:44:33.345Z,76.39
2022-12-04T04:47:02.066Z,75.69
2022-12-04T04:49:29.902Z,75.68
2022-12-04T04:51:57.324Z,74.85
2022-12-04T04:54:24.902Z,74.56
2022-12-04T04:56:52.219Z,74.43
2022-12-04T04:59:19.616Z,74.47
2022-12-04T05:01:47.234Z,74.26
2022-12-04T05:04:15.711Z,74.41
2022-12-04T05:06:43.102Z,74.37
2022-12-04T05:09:11.048Z,73.77
2022-12-04T05:11:38.626Z,74.30
2022-12-04T05:14:06.356Z,74.89
2022-12-04T05:16:36.113Z,75.01
2022-12-04T05:19:22.347Z,74.19
2022-12-04T05:21:49.919Z,73.66
2022-12-04T05:24:17.286Z,73.68
2022-12-04T05:26:44.639Z,73.43
2022-12-04T05:29:12.152Z,73.18
2022-12-04T05:31:39.745Z,73.86
2022-12-04T05:34:07.192Z,74.12
2022-12-04T05:36:34.624Z,73.56
2022-12-04T05:39:02.076Z,73.49
2022-12-04T05:41:29.483Z,73.38
2022-12-04T05:43:56.940Z,73.32
2022-12-04T05:46:24.760Z,73.70
2022-12-04T05:48:52.082Z,73.44
2022-12-04T05:51:19.501Z,73.17
2022-12-04T05:53:47.403Z,73.01
2022-12-04T05:56:15.365Z,72.19
2022-12-04T05:58:42.803Z,72.16
2022-12-04T06:01:20.607Z,71.71
2022-12-04T06:03:48.014Z,71.63
2022-12-04T06:06:21.809Z,71.52
2022-12-04T06:08:50.639Z,70.75
2022-12-04T06:11:18.861Z,70.47
2022-12-04T06:13:47.291Z,69.78
2022-12-04T06:16:33.771Z,69.91
2022-12-04T06:19:02.070Z,69.30
2022-12-04T06:21:30.363Z,69.24
2022-12-04T06:23:57.849Z,69.46
2022-12-04T06:26:25.461Z,68.23
2022-12-04T06:28:53.636Z,68.92
2022-12-04T06:31:21.060Z,68.70
2022-12-04T06:33:48.552Z,68.47
2022-12-04T06:36:17.035Z,68.03
2022-12-04T06:38:44.334Z,67.25
2022-12-04T06:41:12.313Z,66.62
2022-12-04T06:43:39.810Z,66.90
2022-12-04T06:46:08.359Z,66.51
2022-12-04T06:48:35.838Z,66.19
2022-12-04T06:51:10.555Z,66.11
2022-12-04T06:53:38.035Z,65.41
2022-12-04T06:56:06.528Z,65.37
2022-12-04T06:58:34.364Z,64.57
2022-12-04T07:01:11.709Z,64.50
2022-12-04T07:03:39.392Z,63.62
2022-12-04T07:06:25.906Z,61.40
2022-12-04T07:09:00.396Z,54.61
2022-12-04T07:11:28.224Z,49.19
2022-12-04T07:13:55.670Z,47.36
2022-12-04T07:16:24.435Z,45.10
2022-12-04T07:18:54.131Z,43.33
2022-12-04T07:21:23.894Z,42.02
2022-12-04T07:23:52.124Z,41.45
2022-12-04T07:26:19.811Z,41.36
2022-12-04T07:28:47.523Z,41.55
2022-12-04T07:31:16.042Z,39.36
2022-12-04T07:33:44.394Z,40.38
2022-12-04T07:36:13.131Z,41.29
2022-12-04T07:38:40.718Z,40.02
2022-12-04T07:41:08.168Z,39.49
2022-12-04T07:43:36.536Z,39.43
2022-12-04T07:46:08.102Z,37.88
2022-12-04T07:48:36.814Z,37.61
2022-12-04T07:51:11.373Z,37.41
2022-12-04T07:53:39.012Z,39.02
2022-12-04T07:56:06.631Z,38.02
2022-12-04T07:58:34.168Z,37.38
2022-12-04T08:01:05.581Z,36.45
2022-12-04T08:03:33.158Z,36.54
2022-12-04T08:06:01.650Z,35.70
2022-12-04T08:08:29.680Z,36.45
2022-12-04T08:10:57.075Z,36.75
2022-12-04T08:13:24.666Z,35.71
2022-12-04T08:15:52.522Z,36.90
2022-12-04T08:18:20.220Z,39.17
2022-12-04T08:20:47.723Z,38.32
2022-12-04T09:08:20.828Z,37.75
2022-12-04T09:10:48.350Z,38.58
2022-12-04T09:13:15.715Z,38.51
2022-12-04T09:15:43.079Z,38.96
2022-12-04T09:18:10.393Z,39.61
2022-12-04T09:20:38.093Z,39.90
2022-12-04T09:23:05.953Z,39.52
2022-12-04T09:25:36.906Z,39.20
2022-12-04T09:47:02.661Z,39.57
2022-12-04T09:49:36.154Z,39.48
2022-12-04T09:52:04.236Z,38.90
2022-12-04T09:54:33.714Z,39.05
2022-12-04T09:57:17.464Z,38.15
2022-12-04T09:59:44.761Z,37.54
2022-12-04T10:02:12.176Z,37.81
2022-12-04T10:04:39.655Z,39.54
2022-12-04T10:07:16.797Z,39.71
2022-12-04T10:10:02.770Z,39.33
2022-12-04T10:12:30.266Z,38.99
2022-12-04T10:15:03.425Z,39.68
2022-12-04T10:17:32.904Z,39.46
2022-12-04T10:20:00.628Z,40.16
2022-12-04T10:26:21.021Z,40.37
2022-12-04T10:28:55.439Z,39.63
2022-12-04T10:31:24.369Z,40.25
2022-12-04T10:33:55.346Z,39.46
2022-12-04T10:36:23.831Z,39.83
2022-12-04T10:38:56.925Z,41.55
2022-12-04T10:41:29.004Z,39.82
2022-12-04T10:43:58.229Z,39.74
2022-12-04T10:46:28.953Z,39.25
2022-12-04T10:48:57.981Z,39.56
2022-12-04T10:51:25.515Z,39.86
2022-12-04T10:53:52.823Z,39.59
2022-12-04T10:56:21.623Z,39.65
2022-12-04T10:58:55.802Z,39.83
2022-12-04T11:01:23.582Z,39.88
2022-12-04T11:04:02.400Z,39.86
2022-12-04T11:06:29.919Z,40.01
2022-12-04T11:08:57.377Z,40.53
2022-12-04T11:11:29.003Z,40.41
2022-12-04T11:14:00.919Z,40.90
2022-12-04T11:16:31.565Z,41.81
2022-12-04T11:18:59.009Z,40.63
2022-12-04T11:21:27.389Z,40.48
2022-12-04T11:23:54.775Z,40.85
2022-12-04T11:26:32.486Z,41.42
2022-12-04T11:29:01.554Z,41.41
2022-12-04T11:31:28.969Z,40.93
2022-12-04T11:33:58.487Z,41.61
2022-12-04T11:36:32.789Z,42.06
2022-12-04T11:39:19.001Z,42.23
2022-12-04T11:41:46.589Z,42.25
2022-12-04T11:44:32.800Z,43.32
2022-12-04T11:47:02.096Z,43.22
2022-12-04T11:49:29.950Z,43.46
2022-12-04T11:52:02.179Z,43.43
2022-12-04T11:54:32.573Z,43.81
2022-12-04T11:57:18.640Z,44.31
2022-12-04T12:00:04.931Z,44.07
2022-12-04T12:02:58.351Z,44.66
2022-12-04T12:05:40.905Z,44.17
2022-12-04T12:08:08.387Z,44.39
2022-12-04T12:10:44.211Z,44.46
2022-12-04T12:13:18.473Z,44.32
2022-12-04T12:15:45.911Z,44.18
2022-12-04T12:18:32.052Z,44.78
2022-12-04T12:20:59.355Z,44.93
2022-12-04T12:23:49.963Z,44.63
2022-12-04T12:26:18.200Z,44.51
2022-12-04T12:28:45.711Z,45.08
2022-12-04T12:31:39.270Z,45.02
2022-12-04T12:34:22.794Z,44.97
2022-12-04T12:36:51.957Z,45.00
2022-12-04T12:39:20.684Z,44.78
2022-12-04T12:41:52.675Z,45.06
2022-12-04T12:44:47.154Z,45.13
2022-12-04T12:47:18.641Z,45.05
2022-12-04T12:49:52.252Z,45.25
2022-12-04T12:52:38.185Z,45.66
2022-12-04T12:55:25.488Z,45.31
2022-12-04T12:58:05.307Z,45.80
2022-12-04T13:00:32.742Z,45.54
2022-12-04T13:03:12.434Z,45.58
2022-12-04T13:05:40.989Z,45.55
2022-12-04T13:08:14.522Z,45.29
2022-12-04T13:10:43.429Z,45.79
2022-12-04T13:13:20.897Z,45.51
2022-12-04T13:15:50.000Z,45.70
2022-12-04T13:18:25.448Z,45.93
2022-12-04T13:20:53.513Z,46.01
2022-12-04T13:23:39.702Z,46.29
2022-12-04T13:26:25.100Z,45.89
2022-12-04T13:28:54.327Z,45.83
2022-12-04T13:31:34.270Z,45.65
2022-12-04T13:34:01.734Z,46.17
2022-12-04T13:36:30.876Z,46.33
2022-12-04T13:39:17.038Z,46.75
2022-12-04T13:41:44.638Z,46.38
2022-12-04T13:44:12.948Z,46.67
2022-12-04T13:46:48.414Z,46.71
2022-12-04T13:49:19.138Z,47.46
2022-12-04T13:51:51.341Z,46.90
2022-12-04T13:54:32.580Z,46.71
2022-12-04T13:57:12.888Z,46.99
2022-12-04T13:59:40.938Z,47.17
2022-12-04T14:02:29.027Z,47.29
2022-12-04T14:05:00.125Z,47.67
2022-12-04T14:07:34.774Z,47.63
2022-12-04T14:10:05.376Z,47.37
2022-12-04T14:12:37.288Z,47.32
2022-12-04T14:15:23.865Z,48.18
2022-12-04T14:18:01.875Z,48.02
2022-12-04T14:20:30.199Z,48.06
2022-12-04T14:23:07.396Z,48.09
2022-12-04T14:25:38.911Z,48.26
2022-12-04T14:28:25.259Z,48.42
2022-12-04T14:31:05.256Z,48.40
2022-12-04T14:33:33.171Z,48.89
2022-12-04T14:36:27.149Z,49.00
2022-12-04T14:39:15.088Z,49.09
2022-12-04T14:41:42.875Z,48.73
2022-12-04T14:44:28.789Z,49.22
2022-12-04T14:47:07.480Z,49.18
2022-12-04T14:49:37.273Z,48.99
2022-12-04T14:52:07.238Z,49.82
2022-12-04T14:54:55.195Z,49.87
2022-12-04T14:57:28.863Z,49.34
2022-12-04T14:59:56.463Z,49.87
2022-12-04T15:02:39.732Z,49.97
2022-12-04T15:05:24.688Z,50.06
2022-12-04T15:07:53.292Z,50.74
2022-12-04T15:10:40.687Z,51.00
2022-12-04T15:13:08.264Z,50.93
2022-12-04T15:15:35.988Z,50.63
2022-12-04T17:19:29.069Z,57.10
2022-12-04T17:21:57.854Z,57.12
2022-12-04T17:24:25.194Z,56.73
2022-12-04T17:26:53.148Z,57.25
2022-12-04T17:29:20.591Z,57.74
2022-12-04T17:31:48.665Z,57.47
2022-12-04T17:34:16.574Z,58.10
2022-12-04T17:36:44.262Z,57.92
2022-12-04T17:39:13.578Z,58.43
2022-12-04T17:41:41.019Z,58.33
2022-12-04T17:44:08.494Z,58.32
2022-12-04T17:46:36.030Z,58.32
2022-12-04T17:49:07.080Z,58.64
2022-12-04T17:51:35.971Z,58.98
2022-12-04T17:54:03.920Z,59.23
2022-12-04T17:56:31.967Z,59.39
2022-12-04T17:58:59.521Z,59.90
2022-12-04T18:01:27.551Z,59.45
2022-12-04T18:03:55.929Z,59.38
2022-12-04T18:06:24.633Z,60.07
2022-12-04T18:08:52.305Z,60.44
2022-12-04T18:11:20.916Z,60.06
2022-12-04T18:14:18.041Z,60.51
2022-12-04T18:16:47.761Z,60.82
2022-12-04T18:19:15.249Z,61.11
2022-12-04T18:21:42.738Z,61.47
2022-12-04T18:24:10.190Z,61.76
2022-12-04T18:26:39.628Z,61.98
2022-12-04T18:29:07.550Z,62.50
2022-12-04T18:31:35.127Z,62.78
2022-12-04T18:34:02.638Z,63.15
2022-12-04T18:36:30.585Z,63.27
2022-12-04T18:38:59.188Z,62.95
2022-12-04T18:41:27.054Z,63.54
2022-12-04T18:43:55.141Z,63.81
2022-12-04T18:46:22.555Z,64.02
2022-12-04T18:48:51.227Z,64.21
2022-12-04T18:51:28.713Z,64.15
2022-12-04T18:54:03.769Z,64.58
2022-12-04T18:56:31.546Z,65.02
2022-12-04T18:59:08.904Z,64.60
2022-12-04T19:01:36.490Z,65.72
2022-12-04T19:04:04.598Z,65.03
2022-12-04T19:06:34.999Z,65.16
2022-12-04T19:09:04.496Z,65.03
2022-12-04T19:11:31.987Z,65.36
2022-12-04T19:13:59.492Z,66.07
2022-12-04T19:16:27.158Z,66.21
2022-12-04T19:18:55.235Z,67.58
2022-12-04T19:21:23.007Z,66.61
2022-12-04T19:23:59.180Z,67.54
2022-12-04T19:26:30.407Z,66.63
2022-12-04T19:28:58.044Z,66.18
2022-12-04T19:31:26.465Z,66.51
2022-12-04T19:33:55.106Z,67.26
2022-12-04T19:36:23.072Z,66.99
2022-12-04T19:38:51.027Z,67.33
2022-12-04T19:41:19.089Z,66.41
2022-12-04T19:43:47.484Z,67.04
2022-12-04T19:46:15.842Z,67.41
2022-12-04T19:48:52.400Z,68.06
2022-12-04T19:51:20.349Z,68.11
2022-12-04T19:53:48.266Z,68.20
2022-12-04T19:56:18.698Z,68.24
2022-12-04T19:58:46.140Z,67.69
2022-12-04T20:01:14.608Z,68.89
2022-12-04T20:03:42.377Z,68.67
2022-12-04T20:06:13.841Z,68.73
2022-12-04T20:08:43.520Z,69.10
2022-12-04T20:11:12.295Z,69.88
2022-12-04T20:13:40.989Z,70.06
2022-12-04T20:16:09.564Z,69.63
2022-12-04T20:18:37.492Z,69.78
2022-12-04T20:21:11.021Z,69.55
2022-12-04T20:23:42.087Z,70.00
2022-12-04T20:26:10.483Z,69.88
2022-12-04T20:28:38.249Z,69.69
2022-12-04T20:31:22.049Z,70.18
2022-12-04T20:33:50.245Z,70.49
2022-12-04T20:36:19.467Z,70.52
2022-12-04T20:38:46.932Z,71.01
2022-12-04T20:41:16.019Z,70.73
2022-12-04T20:43:43.562Z,71.27
2022-12-04T20:46:18.422Z,71.30
2022-12-04T20:48:49.455Z,71.52
2022-12-04T20:51:17.574Z,71.16
2022-12-04T20:53:45.239Z,71.54
2022-12-04T20:56:13.044Z,71.76
2022-12-04T20:58:40.473Z,72.17
2022-12-04T21:01:09.085Z,71.67
2022-12-04T21:03:36.765Z,71.62
2022-12-04T21:06:04.374Z,72.28
2022-12-04T21:08:50.310Z,72.74
2022-12-04T21:11:18.171Z,73.26
2022-12-04T21:14:04.210Z,73.15
2022-12-04T21:16:31.758Z,72.80
2022-12-04T21:18:59.142Z,72.95
2022-12-04T21:21:27.082Z,73.10
2022-12-04T21:23:54.402Z,73.75
2022-12-04T21:26:22.390Z,73.69
2022-12-04T21:28:49.830Z,73.93
2022-12-04T21:31:17.170Z,74.25
2022-12-04T21:33:44.683Z,74.77
2022-12-04T21:36:12.180Z,74.28
2022-12-04T21:38:39.717Z,74.68
2022-12-04T21:41:08.705Z,75.33
2022-12-04T21:43:36.853Z,75.38
2022-12-04T21:46:09.178Z,74.68
2022-12-04T21:48:37.271Z,75.07
2022-12-04T21:51:21.291Z,74.82
2022-12-04T21:53:56.000Z,74.63
2022-12-04T21:56:23.346Z,75.25
2022-12-04T21:58:51.491Z,77.07
2022-12-04T22:01:20.201Z,78.23
2022-12-04T22:03:48.096Z,77.60
2022-12-04T22:06:15.470Z,77.74
2022-12-04T22:08:42.802Z,76.74
2022-12-04T22:11:10.990Z,76.84
2022-12-04T22:13:40.496Z,76.58
2022-12-04T22:16:08.728Z,77.51
2022-12-04T22:18:36.080Z,77.54
2022-12-04T22:21:07.211Z,78.31
2022-12-04T22:23:34.811Z,78.94
2022-12-04T22:26:08.686Z,78.81
2022-12-04T22:28:36.575Z,78.91
2022-12-04T22:31:11.645Z,78.07
2022-12-04T22:33:39.242Z,78.63
2022-12-04T22:36:07.747Z,78.63
2022-12-04T22:38:47.205Z,78.14
2022-12-04T22:41:23.442Z,77.89
2022-12-04T22:43:50.882Z,78.15
2022-12-04T22:46:18.478Z,78.61
2022-12-04T22:48:46.220Z,78.68
2022-12-04T22:51:13.631Z,78.86
2022-12-04T22:53:42.333Z,78.14
2022-12-04T22:56:13.719Z,79.43
2022-12-04T22:58:41.341Z,80.51
2022-12-04T23:01:29.087Z,80.41
2022-12-04T23:03:56.758Z,80.31
2022-12-04T23:06:24.664Z,79.49
2022-12-04T23:08:55.511Z,80.44
2022-12-04T23:11:23.341Z,79.50
2022-12-04T23:13:51.553Z,79.45
2022-12-04T23:16:20.540Z,79.68
2022-12-04T23:18:48.378Z,79.95
2022-12-04T23:21:15.940Z,79.36
2022-12-04T23:23:43.946Z,79.06
2022-12-04T23:26:12.759Z,79.27
2022-12-04T23:28:40.018Z,79.87
2022-12-04T23:31:07.487Z,79.73
2022-12-04T23:33:35.087Z,80.36
2022-12-04T23:36:02.691Z,80.59
2022-12-04T23:38:30.438Z,79.68
2022-12-04T23:41:01.985Z,79.19
2022-12-04T23:43:29.389Z,79.40
2022-12-04T23:45:57.115Z,80.99
2022-12-04T23:48:24.654Z,81.07
2022-12-04T23:50:52.007Z,80.80
2022-12-04T23:53:20.735Z,80.20
2022-12-04T23:56:01.220Z,80.97
2022-12-04T23:58:29.178Z,81.30
